<?xml version="1.0" encoding="UTF-8" standalone="no" ?>
<gpx xmlns="http://www.topografix.com/GPX/1/1" xmlns:xsi="http://www.w3.org/2001/XMLSchema-instance" xsi:schemaLocation="http://www.topografix.com/GPX/1/1 http://www.topografix.com/GPX/1/1/gpx.xsd" version="1.1" creator="VisuGPX - https://www.visugpx.com">
  <metadata>
    <name>Essaie</name>
  </metadata>
  <trk>
    <name><![CDATA[9842529-Vtt ffc nasbinals 6 escudierettes]]></name>
    <trkseg>
      <trkpt lat="44.66186" lon="3.04784">
        <ele>1175</ele>
        <time>2019-04-19T16:43:13Z</time>
      </trkpt>
      <trkpt lat="44.66187" lon="3.04738">
        <ele>1175</ele>
        <time>2019-04-19T16:44:13Z</time>
      </trkpt>
      <trkpt lat="44.66197" lon="3.04691">
        <ele>1176</ele>
        <time>2019-04-19T16:45:13Z</time>
      </trkpt>
      <trkpt lat="44.66219" lon="3.04664">
        <ele>1177</ele>
        <time>2019-04-19T16:46:13Z</time>
      </trkpt>
      <trkpt lat="44.66245" lon="3.04675">
        <ele>1178</ele>
        <time>2019-04-19T16:47:13Z</time>
      </trkpt>
      <trkpt lat="44.66261" lon="3.04649">
        <ele>1181</ele>
        <time>2019-04-19T16:48:13Z</time>
      </trkpt>
      <trkpt lat="44.66264" lon="3.04615">
        <ele>1182</ele>
        <time>2019-04-19T16:49:13Z</time>
      </trkpt>
      <trkpt lat="44.66279" lon="3.04618">
        <ele>1183</ele>
        <time>2019-04-19T16:50:13Z</time>
      </trkpt>
      <trkpt lat="44.66293" lon="3.04625">
        <ele>1184</ele>
        <time>2019-04-19T16:51:13Z</time>
      </trkpt>
      <trkpt lat="44.66322" lon="3.04705">
        <ele>1184</ele>
        <time>2019-04-19T16:52:13Z</time>
      </trkpt>
      <trkpt lat="44.66335" lon="3.04715">
        <ele>1184</ele>
        <time>2019-04-19T16:53:13Z</time>
      </trkpt>
      <trkpt lat="44.66416" lon="3.04694">
        <ele>1190</ele>
        <time>2019-04-19T16:54:13Z</time>
      </trkpt>
      <trkpt lat="44.66491" lon="3.04669">
        <ele>1188</ele>
        <time>2019-04-19T16:55:13Z</time>
      </trkpt>
      <trkpt lat="44.666" lon="3.04635">
        <ele>1185</ele>
        <time>2019-04-19T16:56:13Z</time>
      </trkpt>
      <trkpt lat="44.6668" lon="3.04628">
        <ele>1186</ele>
        <time>2019-04-19T16:57:13Z</time>
      </trkpt>
      <trkpt lat="44.66755" lon="3.04621">
        <ele>1186</ele>
        <time>2019-04-19T16:58:13Z</time>
      </trkpt>
      <trkpt lat="44.66824" lon="3.04646">
        <ele>1183</ele>
        <time>2019-04-19T16:59:13Z</time>
      </trkpt>
      <trkpt lat="44.66919" lon="3.04684">
        <ele>1185</ele>
        <time>2019-04-19T17:00:13Z</time>
      </trkpt>
      <trkpt lat="44.67036" lon="3.04696">
        <ele>1183</ele>
        <time>2019-04-19T17:01:13Z</time>
      </trkpt>
      <trkpt lat="44.6713" lon="3.04662">
        <ele>1178</ele>
        <time>2019-04-19T17:02:13Z</time>
      </trkpt>
      <trkpt lat="44.67185" lon="3.04653">
        <ele>1174</ele>
        <time>2019-04-19T17:03:13Z</time>
      </trkpt>
      <trkpt lat="44.6728" lon="3.04719">
        <ele>1167</ele>
        <time>2019-04-19T17:04:13Z</time>
      </trkpt>
      <trkpt lat="44.67354" lon="3.04779">
        <ele>1160</ele>
        <time>2019-04-19T17:05:13Z</time>
      </trkpt>
      <trkpt lat="44.67435" lon="3.04775">
        <ele>1154</ele>
        <time>2019-04-19T17:06:13Z</time>
      </trkpt>
      <trkpt lat="44.67519" lon="3.04741">
        <ele>1151</ele>
        <time>2019-04-19T17:07:13Z</time>
      </trkpt>
      <trkpt lat="44.67614" lon="3.04711">
        <ele>1143</ele>
        <time>2019-04-19T17:08:13Z</time>
      </trkpt>
      <trkpt lat="44.67668" lon="3.04693">
        <ele>1139</ele>
        <time>2019-04-19T17:09:13Z</time>
      </trkpt>
      <trkpt lat="44.67758" lon="3.04695">
        <ele>1131</ele>
        <time>2019-04-19T17:10:13Z</time>
      </trkpt>
      <trkpt lat="44.67793" lon="3.04704">
        <ele>1128</ele>
        <time>2019-04-19T17:11:13Z</time>
      </trkpt>
      <trkpt lat="44.67921" lon="3.04807">
        <ele>1118</ele>
        <time>2019-04-19T17:12:13Z</time>
      </trkpt>
      <trkpt lat="44.67957" lon="3.04831">
        <ele>1116</ele>
        <time>2019-04-19T17:13:13Z</time>
      </trkpt>
      <trkpt lat="44.68037" lon="3.04849">
        <ele>1108</ele>
        <time>2019-04-19T17:14:13Z</time>
      </trkpt>
      <trkpt lat="44.68121" lon="3.04856">
        <ele>1101</ele>
        <time>2019-04-19T17:15:13Z</time>
      </trkpt>
      <trkpt lat="44.68222" lon="3.04826">
        <ele>1094</ele>
        <time>2019-04-19T17:16:13Z</time>
      </trkpt>
      <trkpt lat="44.68241" lon="3.04809">
        <ele>1093</ele>
        <time>2019-04-19T17:17:13Z</time>
      </trkpt>
      <trkpt lat="44.68269" lon="3.04706">
        <ele>1091</ele>
        <time>2019-04-19T17:18:13Z</time>
      </trkpt>
      <trkpt lat="44.68307" lon="3.04605">
        <ele>1090</ele>
        <time>2019-04-19T17:19:13Z</time>
      </trkpt>
      <trkpt lat="44.68348" lon="3.04542">
        <ele>1088</ele>
        <time>2019-04-19T17:20:13Z</time>
      </trkpt>
      <trkpt lat="44.6844" lon="3.04448">
        <ele>1086</ele>
        <time>2019-04-19T17:21:13Z</time>
      </trkpt>
      <trkpt lat="44.68522" lon="3.04362">
        <ele>1084</ele>
        <time>2019-04-19T17:22:13Z</time>
      </trkpt>
      <trkpt lat="44.68581" lon="3.04298">
        <ele>1083</ele>
        <time>2019-04-19T17:23:13Z</time>
      </trkpt>
      <trkpt lat="44.68614" lon="3.042">
        <ele>1082</ele>
        <time>2019-04-19T17:24:13Z</time>
      </trkpt>
      <trkpt lat="44.68647" lon="3.04089">
        <ele>1078</ele>
        <time>2019-04-19T17:25:13Z</time>
      </trkpt>
      <trkpt lat="44.68676" lon="3.03985">
        <ele>1076</ele>
        <time>2019-04-19T17:26:13Z</time>
      </trkpt>
      <trkpt lat="44.68704" lon="3.03927">
        <ele>1076</ele>
        <time>2019-04-19T17:27:13Z</time>
      </trkpt>
      <trkpt lat="44.68763" lon="3.03863">
        <ele>1076</ele>
        <time>2019-04-19T17:28:13Z</time>
      </trkpt>
      <trkpt lat="44.68831" lon="3.03773">
        <ele>1074</ele>
        <time>2019-04-19T17:29:13Z</time>
      </trkpt>
      <trkpt lat="44.68881" lon="3.03712">
        <ele>1077</ele>
        <time>2019-04-19T17:30:13Z</time>
      </trkpt>
      <trkpt lat="44.68919" lon="3.03696">
        <ele>1077</ele>
        <time>2019-04-19T17:31:13Z</time>
      </trkpt>
      <trkpt lat="44.68961" lon="3.0369">
        <ele>1074</ele>
        <time>2019-04-19T17:32:13Z</time>
      </trkpt>
      <trkpt lat="44.69045" lon="3.03625">
        <ele>1074</ele>
        <time>2019-04-19T17:33:13Z</time>
      </trkpt>
      <trkpt lat="44.69121" lon="3.03593">
        <ele>1074</ele>
        <time>2019-04-19T17:34:13Z</time>
      </trkpt>
      <trkpt lat="44.69223" lon="3.03571">
        <ele>1072</ele>
        <time>2019-04-19T17:35:13Z</time>
      </trkpt>
      <trkpt lat="44.69304" lon="3.03556">
        <ele>1069</ele>
        <time>2019-04-19T17:36:13Z</time>
      </trkpt>
      <trkpt lat="44.69366" lon="3.03495">
        <ele>1069</ele>
        <time>2019-04-19T17:37:13Z</time>
      </trkpt>
      <trkpt lat="44.69432" lon="3.03528">
        <ele>1069</ele>
        <time>2019-04-19T17:38:13Z</time>
      </trkpt>
      <trkpt lat="44.69467" lon="3.03538">
        <ele>1074</ele>
        <time>2019-04-19T17:39:13Z</time>
      </trkpt>
      <trkpt lat="44.69444" lon="3.03568">
        <ele>1074</ele>
        <time>2019-04-19T17:40:13Z</time>
      </trkpt>
      <trkpt lat="44.69397" lon="3.0367">
        <ele>1080</ele>
        <time>2019-04-19T17:41:13Z</time>
      </trkpt>
      <trkpt lat="44.6934" lon="3.03748">
        <ele>1083</ele>
        <time>2019-04-19T17:42:13Z</time>
      </trkpt>
      <trkpt lat="44.69276" lon="3.03823">
        <ele>1087</ele>
        <time>2019-04-19T17:43:13Z</time>
      </trkpt>
      <trkpt lat="44.69241" lon="3.03925">
        <ele>1090</ele>
        <time>2019-04-19T17:44:13Z</time>
      </trkpt>
      <trkpt lat="44.69263" lon="3.03963">
        <ele>1094</ele>
        <time>2019-04-19T17:45:13Z</time>
      </trkpt>
      <trkpt lat="44.69289" lon="3.03988">
        <ele>1099</ele>
        <time>2019-04-19T17:46:13Z</time>
      </trkpt>
      <trkpt lat="44.69302" lon="3.04064">
        <ele>1102</ele>
        <time>2019-04-19T17:47:13Z</time>
      </trkpt>
      <trkpt lat="44.69295" lon="3.04161">
        <ele>1105</ele>
        <time>2019-04-19T17:48:13Z</time>
      </trkpt>
      <trkpt lat="44.69283" lon="3.04192">
        <ele>1107</ele>
        <time>2019-04-19T17:49:13Z</time>
      </trkpt>
      <trkpt lat="44.69254" lon="3.04219">
        <ele>1108</ele>
        <time>2019-04-19T17:50:13Z</time>
      </trkpt>
      <trkpt lat="44.69201" lon="3.04244">
        <ele>1109</ele>
        <time>2019-04-19T17:51:13Z</time>
      </trkpt>
      <trkpt lat="44.69141" lon="3.04253">
        <ele>1110</ele>
        <time>2019-04-19T17:52:13Z</time>
      </trkpt>
      <trkpt lat="44.69122" lon="3.04257">
        <ele>1110</ele>
        <time>2019-04-19T17:53:13Z</time>
      </trkpt>
      <trkpt lat="44.69087" lon="3.04304">
        <ele>1115</ele>
        <time>2019-04-19T17:54:13Z</time>
      </trkpt>
      <trkpt lat="44.69104" lon="3.04483">
        <ele>1123</ele>
        <time>2019-04-19T17:55:13Z</time>
      </trkpt>
      <trkpt lat="44.69088" lon="3.0452">
        <ele>1123</ele>
        <time>2019-04-19T17:56:13Z</time>
      </trkpt>
      <trkpt lat="44.69036" lon="3.04684">
        <ele>1124</ele>
        <time>2019-04-19T17:57:13Z</time>
      </trkpt>
      <trkpt lat="44.68998" lon="3.04828">
        <ele>1126</ele>
        <time>2019-04-19T17:58:13Z</time>
      </trkpt>
      <trkpt lat="44.68971" lon="3.04933">
        <ele>1128</ele>
        <time>2019-04-19T17:59:13Z</time>
      </trkpt>
      <trkpt lat="44.68963" lon="3.04975">
        <ele>1128</ele>
        <time>2019-04-19T18:00:13Z</time>
      </trkpt>
      <trkpt lat="44.68974" lon="3.05033">
        <ele>1129</ele>
        <time>2019-04-19T18:01:13Z</time>
      </trkpt>
      <trkpt lat="44.68983" lon="3.05072">
        <ele>1130</ele>
        <time>2019-04-19T18:02:13Z</time>
      </trkpt>
      <trkpt lat="44.68979" lon="3.05143">
        <ele>1130</ele>
        <time>2019-04-19T18:03:13Z</time>
      </trkpt>
      <trkpt lat="44.68954" lon="3.05265">
        <ele>1134</ele>
        <time>2019-04-19T18:04:13Z</time>
      </trkpt>
      <trkpt lat="44.68953" lon="3.05296">
        <ele>1136</ele>
        <time>2019-04-19T18:05:13Z</time>
      </trkpt>
      <trkpt lat="44.68937" lon="3.05338">
        <ele>1136</ele>
        <time>2019-04-19T18:06:13Z</time>
      </trkpt>
      <trkpt lat="44.68897" lon="3.05495">
        <ele>1138</ele>
        <time>2019-04-19T18:07:13Z</time>
      </trkpt>
      <trkpt lat="44.68888" lon="3.0555">
        <ele>1135</ele>
        <time>2019-04-19T18:08:13Z</time>
      </trkpt>
      <trkpt lat="44.68866" lon="3.05613">
        <ele>1131</ele>
        <time>2019-04-19T18:09:13Z</time>
      </trkpt>
      <trkpt lat="44.68855" lon="3.05662">
        <ele>1130</ele>
        <time>2019-04-19T18:10:13Z</time>
      </trkpt>
      <trkpt lat="44.68876" lon="3.05699">
        <ele>1130</ele>
        <time>2019-04-19T18:11:13Z</time>
      </trkpt>
      <trkpt lat="44.68857" lon="3.05843">
        <ele>1124</ele>
        <time>2019-04-19T18:12:13Z</time>
      </trkpt>
      <trkpt lat="44.68842" lon="3.05954">
        <ele>1121</ele>
        <time>2019-04-19T18:13:13Z</time>
      </trkpt>
      <trkpt lat="44.68815" lon="3.0604">
        <ele>1121</ele>
        <time>2019-04-19T18:14:13Z</time>
      </trkpt>
      <trkpt lat="44.68757" lon="3.06149">
        <ele>1125</ele>
        <time>2019-04-19T18:15:13Z</time>
      </trkpt>
      <trkpt lat="44.68718" lon="3.06262">
        <ele>1127</ele>
        <time>2019-04-19T18:16:13Z</time>
      </trkpt>
      <trkpt lat="44.68672" lon="3.06385">
        <ele>1130</ele>
        <time>2019-04-19T18:17:13Z</time>
      </trkpt>
      <trkpt lat="44.68625" lon="3.06507">
        <ele>1136</ele>
        <time>2019-04-19T18:18:13Z</time>
      </trkpt>
      <trkpt lat="44.68591" lon="3.06571">
        <ele>1138</ele>
        <time>2019-04-19T18:19:13Z</time>
      </trkpt>
      <trkpt lat="44.68518" lon="3.06625">
        <ele>1139</ele>
        <time>2019-04-19T18:20:13Z</time>
      </trkpt>
      <trkpt lat="44.68495" lon="3.06715">
        <ele>1142</ele>
        <time>2019-04-19T18:21:13Z</time>
      </trkpt>
      <trkpt lat="44.68461" lon="3.06801">
        <ele>1144</ele>
        <time>2019-04-19T18:22:13Z</time>
      </trkpt>
      <trkpt lat="44.68432" lon="3.06898">
        <ele>1146</ele>
        <time>2019-04-19T18:23:13Z</time>
      </trkpt>
      <trkpt lat="44.6843" lon="3.06921">
        <ele>1147</ele>
        <time>2019-04-19T18:24:13Z</time>
      </trkpt>
      <trkpt lat="44.68422" lon="3.06968">
        <ele>1149</ele>
        <time>2019-04-19T18:25:13Z</time>
      </trkpt>
      <trkpt lat="44.68398" lon="3.07006">
        <ele>1148</ele>
        <time>2019-04-19T18:26:13Z</time>
      </trkpt>
      <trkpt lat="44.68388" lon="3.07071">
        <ele>1153</ele>
        <time>2019-04-19T18:27:13Z</time>
      </trkpt>
      <trkpt lat="44.6835" lon="3.07173">
        <ele>1154</ele>
        <time>2019-04-19T18:28:13Z</time>
      </trkpt>
      <trkpt lat="44.6834" lon="3.07283">
        <ele>1158</ele>
        <time>2019-04-19T18:29:13Z</time>
      </trkpt>
      <trkpt lat="44.68349" lon="3.07367">
        <ele>1162</ele>
        <time>2019-04-19T18:30:13Z</time>
      </trkpt>
      <trkpt lat="44.68394" lon="3.07495">
        <ele>1162</ele>
        <time>2019-04-19T18:31:13Z</time>
      </trkpt>
      <trkpt lat="44.68448" lon="3.07567">
        <ele>1162</ele>
        <time>2019-04-19T18:32:13Z</time>
      </trkpt>
      <trkpt lat="44.68502" lon="3.07646">
        <ele>1160</ele>
        <time>2019-04-19T18:33:13Z</time>
      </trkpt>
      <trkpt lat="44.68553" lon="3.07716">
        <ele>1155</ele>
        <time>2019-04-19T18:34:13Z</time>
      </trkpt>
      <trkpt lat="44.68592" lon="3.07758">
        <ele>1154</ele>
        <time>2019-04-19T18:35:13Z</time>
      </trkpt>
      <trkpt lat="44.68591" lon="3.07788">
        <ele>1155</ele>
        <time>2019-04-19T18:36:13Z</time>
      </trkpt>
      <trkpt lat="44.68625" lon="3.07856">
        <ele>1156</ele>
        <time>2019-04-19T18:37:13Z</time>
      </trkpt>
      <trkpt lat="44.68651" lon="3.07918">
        <ele>1157</ele>
        <time>2019-04-19T18:38:13Z</time>
      </trkpt>
      <trkpt lat="44.68694" lon="3.08019">
        <ele>1160</ele>
        <time>2019-04-19T18:39:13Z</time>
      </trkpt>
      <trkpt lat="44.68732" lon="3.08094">
        <ele>1160</ele>
        <time>2019-04-19T18:40:13Z</time>
      </trkpt>
      <trkpt lat="44.68766" lon="3.08148">
        <ele>1157</ele>
        <time>2019-04-19T18:41:13Z</time>
      </trkpt>
      <trkpt lat="44.68803" lon="3.08209">
        <ele>1156</ele>
        <time>2019-04-19T18:42:13Z</time>
      </trkpt>
      <trkpt lat="44.68824" lon="3.08286">
        <ele>1156</ele>
        <time>2019-04-19T18:43:13Z</time>
      </trkpt>
      <trkpt lat="44.68853" lon="3.08365">
        <ele>1157</ele>
        <time>2019-04-19T18:44:13Z</time>
      </trkpt>
      <trkpt lat="44.68858" lon="3.08462">
        <ele>1158</ele>
        <time>2019-04-19T18:45:13Z</time>
      </trkpt>
      <trkpt lat="44.68852" lon="3.08476">
        <ele>1157</ele>
        <time>2019-04-19T18:46:13Z</time>
      </trkpt>
      <trkpt lat="44.68816" lon="3.08399">
        <ele>1155</ele>
        <time>2019-04-19T18:47:13Z</time>
      </trkpt>
      <trkpt lat="44.68804" lon="3.08381">
        <ele>1155</ele>
        <time>2019-04-19T18:48:13Z</time>
      </trkpt>
      <trkpt lat="44.68766" lon="3.0835">
        <ele>1154</ele>
        <time>2019-04-19T18:49:13Z</time>
      </trkpt>
      <trkpt lat="44.68718" lon="3.08329">
        <ele>1152</ele>
        <time>2019-04-19T18:50:13Z</time>
      </trkpt>
      <trkpt lat="44.68646" lon="3.08304">
        <ele>1151</ele>
        <time>2019-04-19T18:51:13Z</time>
      </trkpt>
      <trkpt lat="44.68558" lon="3.08271">
        <ele>1149</ele>
        <time>2019-04-19T18:52:13Z</time>
      </trkpt>
      <trkpt lat="44.68471" lon="3.08239">
        <ele>1147</ele>
        <time>2019-04-19T18:53:13Z</time>
      </trkpt>
      <trkpt lat="44.68408" lon="3.08291">
        <ele>1144</ele>
        <time>2019-04-19T18:54:13Z</time>
      </trkpt>
      <trkpt lat="44.68379" lon="3.08332">
        <ele>1144</ele>
        <time>2019-04-19T18:55:13Z</time>
      </trkpt>
      <trkpt lat="44.68346" lon="3.08326">
        <ele>1143</ele>
        <time>2019-04-19T18:56:13Z</time>
      </trkpt>
      <trkpt lat="44.68313" lon="3.08352">
        <ele>1145</ele>
        <time>2019-04-19T18:57:13Z</time>
      </trkpt>
      <trkpt lat="44.68278" lon="3.084">
        <ele>1147</ele>
        <time>2019-04-19T18:58:13Z</time>
      </trkpt>
      <trkpt lat="44.68255" lon="3.08448">
        <ele>1147</ele>
        <time>2019-04-19T18:59:13Z</time>
      </trkpt>
      <trkpt lat="44.68244" lon="3.08519">
        <ele>1148</ele>
        <time>2019-04-19T19:00:13Z</time>
      </trkpt>
      <trkpt lat="44.68211" lon="3.08596">
        <ele>1150</ele>
        <time>2019-04-19T19:01:13Z</time>
      </trkpt>
      <trkpt lat="44.68181" lon="3.08658">
        <ele>1151</ele>
        <time>2019-04-19T19:02:13Z</time>
      </trkpt>
      <trkpt lat="44.68155" lon="3.08729">
        <ele>1151</ele>
        <time>2019-04-19T19:03:13Z</time>
      </trkpt>
      <trkpt lat="44.68122" lon="3.08789">
        <ele>1153</ele>
        <time>2019-04-19T19:04:13Z</time>
      </trkpt>
      <trkpt lat="44.68087" lon="3.08849">
        <ele>1153</ele>
        <time>2019-04-19T19:05:13Z</time>
      </trkpt>
      <trkpt lat="44.68051" lon="3.08907">
        <ele>1153</ele>
        <time>2019-04-19T19:06:13Z</time>
      </trkpt>
      <trkpt lat="44.68022" lon="3.08955">
        <ele>1154</ele>
        <time>2019-04-19T19:07:13Z</time>
      </trkpt>
      <trkpt lat="44.67997" lon="3.09009">
        <ele>1154</ele>
        <time>2019-04-19T19:08:13Z</time>
      </trkpt>
      <trkpt lat="44.67972" lon="3.09081">
        <ele>1153</ele>
        <time>2019-04-19T19:09:13Z</time>
      </trkpt>
      <trkpt lat="44.67951" lon="3.09141">
        <ele>1154</ele>
        <time>2019-04-19T19:10:13Z</time>
      </trkpt>
      <trkpt lat="44.67932" lon="3.09201">
        <ele>1154</ele>
        <time>2019-04-19T19:11:13Z</time>
      </trkpt>
      <trkpt lat="44.67914" lon="3.09258">
        <ele>1155</ele>
        <time>2019-04-19T19:12:13Z</time>
      </trkpt>
      <trkpt lat="44.67898" lon="3.09294">
        <ele>1155</ele>
        <time>2019-04-19T19:13:13Z</time>
      </trkpt>
      <trkpt lat="44.67866" lon="3.09338">
        <ele>1156</ele>
        <time>2019-04-19T19:14:13Z</time>
      </trkpt>
      <trkpt lat="44.67847" lon="3.09395">
        <ele>1158</ele>
        <time>2019-04-19T19:15:13Z</time>
      </trkpt>
      <trkpt lat="44.67829" lon="3.09458">
        <ele>1161</ele>
        <time>2019-04-19T19:16:13Z</time>
      </trkpt>
      <trkpt lat="44.67807" lon="3.0951">
        <ele>1163</ele>
        <time>2019-04-19T19:17:13Z</time>
      </trkpt>
      <trkpt lat="44.67777" lon="3.09571">
        <ele>1165</ele>
        <time>2019-04-19T19:18:13Z</time>
      </trkpt>
      <trkpt lat="44.6775" lon="3.09619">
        <ele>1168</ele>
        <time>2019-04-19T19:19:13Z</time>
      </trkpt>
      <trkpt lat="44.6772" lon="3.09663">
        <ele>1169</ele>
        <time>2019-04-19T19:20:13Z</time>
      </trkpt>
      <trkpt lat="44.67693" lon="3.09698">
        <ele>1171</ele>
        <time>2019-04-19T19:21:13Z</time>
      </trkpt>
      <trkpt lat="44.67655" lon="3.09742">
        <ele>1173</ele>
        <time>2019-04-19T19:22:13Z</time>
      </trkpt>
      <trkpt lat="44.67606" lon="3.09767">
        <ele>1173</ele>
        <time>2019-04-19T19:23:13Z</time>
      </trkpt>
      <trkpt lat="44.67561" lon="3.09786">
        <ele>1174</ele>
        <time>2019-04-19T19:24:13Z</time>
      </trkpt>
      <trkpt lat="44.67511" lon="3.09814">
        <ele>1174</ele>
        <time>2019-04-19T19:25:13Z</time>
      </trkpt>
      <trkpt lat="44.67476" lon="3.09841">
        <ele>1175</ele>
        <time>2019-04-19T19:26:13Z</time>
      </trkpt>
      <trkpt lat="44.67436" lon="3.09885">
        <ele>1176</ele>
        <time>2019-04-19T19:27:13Z</time>
      </trkpt>
      <trkpt lat="44.67386" lon="3.09921">
        <ele>1177</ele>
        <time>2019-04-19T19:28:13Z</time>
      </trkpt>
      <trkpt lat="44.67339" lon="3.09946">
        <ele>1178</ele>
        <time>2019-04-19T19:29:13Z</time>
      </trkpt>
      <trkpt lat="44.67291" lon="3.09958">
        <ele>1180</ele>
        <time>2019-04-19T19:30:13Z</time>
      </trkpt>
      <trkpt lat="44.67263" lon="3.09975">
        <ele>1182</ele>
        <time>2019-04-19T19:31:13Z</time>
      </trkpt>
      <trkpt lat="44.67212" lon="3.1003">
        <ele>1185</ele>
        <time>2019-04-19T19:32:13Z</time>
      </trkpt>
      <trkpt lat="44.67169" lon="3.1006">
        <ele>1188</ele>
        <time>2019-04-19T19:33:13Z</time>
      </trkpt>
      <trkpt lat="44.67147" lon="3.10071">
        <ele>1189</ele>
        <time>2019-04-19T19:34:13Z</time>
      </trkpt>
      <trkpt lat="44.67098" lon="3.10125">
        <ele>1193</ele>
        <time>2019-04-19T19:35:13Z</time>
      </trkpt>
      <trkpt lat="44.67069" lon="3.10179">
        <ele>1192</ele>
        <time>2019-04-19T19:36:13Z</time>
      </trkpt>
      <trkpt lat="44.67046" lon="3.10225">
        <ele>1191</ele>
        <time>2019-04-19T19:37:13Z</time>
      </trkpt>
      <trkpt lat="44.67009" lon="3.10271">
        <ele>1191</ele>
        <time>2019-04-19T19:38:13Z</time>
      </trkpt>
      <trkpt lat="44.66978" lon="3.1033">
        <ele>1190</ele>
        <time>2019-04-19T19:39:13Z</time>
      </trkpt>
      <trkpt lat="44.66965" lon="3.10316">
        <ele>1190</ele>
        <time>2019-04-19T19:40:13Z</time>
      </trkpt>
      <trkpt lat="44.66916" lon="3.10306">
        <ele>1189</ele>
        <time>2019-04-19T19:41:13Z</time>
      </trkpt>
      <trkpt lat="44.66908" lon="3.10291">
        <ele>1188</ele>
        <time>2019-04-19T19:42:13Z</time>
      </trkpt>
      <trkpt lat="44.66899" lon="3.10272">
        <ele>1187</ele>
        <time>2019-04-19T19:43:13Z</time>
      </trkpt>
      <trkpt lat="44.6689" lon="3.10277">
        <ele>1187</ele>
        <time>2019-04-19T19:44:13Z</time>
      </trkpt>
      <trkpt lat="44.66857" lon="3.10259">
        <ele>1183</ele>
        <time>2019-04-19T19:45:13Z</time>
      </trkpt>
      <trkpt lat="44.66853" lon="3.10249">
        <ele>1183</ele>
        <time>2019-04-19T19:46:13Z</time>
      </trkpt>
      <trkpt lat="44.66852" lon="3.10195">
        <ele>1182</ele>
        <time>2019-04-19T19:47:13Z</time>
      </trkpt>
      <trkpt lat="44.66849" lon="3.10151">
        <ele>1181</ele>
        <time>2019-04-19T19:48:13Z</time>
      </trkpt>
      <trkpt lat="44.66836" lon="3.10114">
        <ele>1179</ele>
        <time>2019-04-19T19:49:13Z</time>
      </trkpt>
      <trkpt lat="44.66812" lon="3.10086">
        <ele>1176</ele>
        <time>2019-04-19T19:50:13Z</time>
      </trkpt>
      <trkpt lat="44.66788" lon="3.10066">
        <ele>1173</ele>
        <time>2019-04-19T19:51:13Z</time>
      </trkpt>
      <trkpt lat="44.66755" lon="3.10056">
        <ele>1170</ele>
        <time>2019-04-19T19:52:13Z</time>
      </trkpt>
      <trkpt lat="44.66723" lon="3.10053">
        <ele>1168</ele>
        <time>2019-04-19T19:53:13Z</time>
      </trkpt>
      <trkpt lat="44.66681" lon="3.10058">
        <ele>1167</ele>
        <time>2019-04-19T19:54:13Z</time>
      </trkpt>
      <trkpt lat="44.66657" lon="3.1005">
        <ele>1165</ele>
        <time>2019-04-19T19:55:13Z</time>
      </trkpt>
      <trkpt lat="44.66628" lon="3.10038">
        <ele>1163</ele>
        <time>2019-04-19T19:56:13Z</time>
      </trkpt>
      <trkpt lat="44.66595" lon="3.10015">
        <ele>1159</ele>
        <time>2019-04-19T19:57:13Z</time>
      </trkpt>
      <trkpt lat="44.66566" lon="3.0999">
        <ele>1157</ele>
        <time>2019-04-19T19:58:13Z</time>
      </trkpt>
      <trkpt lat="44.66536" lon="3.09967">
        <ele>1157</ele>
        <time>2019-04-19T19:59:13Z</time>
      </trkpt>
      <trkpt lat="44.66506" lon="3.0994">
        <ele>1157</ele>
        <time>2019-04-19T20:00:13Z</time>
      </trkpt>
      <trkpt lat="44.66476" lon="3.09911">
        <ele>1156</ele>
        <time>2019-04-19T20:01:13Z</time>
      </trkpt>
      <trkpt lat="44.66448" lon="3.09882">
        <ele>1154</ele>
        <time>2019-04-19T20:02:13Z</time>
      </trkpt>
      <trkpt lat="44.66415" lon="3.09848">
        <ele>1152</ele>
        <time>2019-04-19T20:03:13Z</time>
      </trkpt>
      <trkpt lat="44.66385" lon="3.09812">
        <ele>1153</ele>
        <time>2019-04-19T20:04:13Z</time>
      </trkpt>
      <trkpt lat="44.66363" lon="3.09786">
        <ele>1154</ele>
        <time>2019-04-19T20:05:13Z</time>
      </trkpt>
      <trkpt lat="44.6634" lon="3.09741">
        <ele>1155</ele>
        <time>2019-04-19T20:06:13Z</time>
      </trkpt>
      <trkpt lat="44.66315" lon="3.09692">
        <ele>1155</ele>
        <time>2019-04-19T20:07:13Z</time>
      </trkpt>
      <trkpt lat="44.66296" lon="3.09659">
        <ele>1154</ele>
        <time>2019-04-19T20:08:13Z</time>
      </trkpt>
      <trkpt lat="44.66264" lon="3.09612">
        <ele>1153</ele>
        <time>2019-04-19T20:09:13Z</time>
      </trkpt>
      <trkpt lat="44.66246" lon="3.09587">
        <ele>1153</ele>
        <time>2019-04-19T20:10:13Z</time>
      </trkpt>
      <trkpt lat="44.66216" lon="3.09546">
        <ele>1154</ele>
        <time>2019-04-19T20:11:13Z</time>
      </trkpt>
      <trkpt lat="44.66183" lon="3.09508">
        <ele>1155</ele>
        <time>2019-04-19T20:12:13Z</time>
      </trkpt>
      <trkpt lat="44.66156" lon="3.09478">
        <ele>1155</ele>
        <time>2019-04-19T20:13:13Z</time>
      </trkpt>
      <trkpt lat="44.66114" lon="3.09435">
        <ele>1155</ele>
        <time>2019-04-19T20:14:13Z</time>
      </trkpt>
      <trkpt lat="44.66083" lon="3.09401">
        <ele>1153</ele>
        <time>2019-04-19T20:15:13Z</time>
      </trkpt>
      <trkpt lat="44.66044" lon="3.09369">
        <ele>1153</ele>
        <time>2019-04-19T20:16:13Z</time>
      </trkpt>
      <trkpt lat="44.66014" lon="3.09348">
        <ele>1153</ele>
        <time>2019-04-19T20:17:13Z</time>
      </trkpt>
      <trkpt lat="44.65975" lon="3.09327">
        <ele>1154</ele>
        <time>2019-04-19T20:18:13Z</time>
      </trkpt>
      <trkpt lat="44.65952" lon="3.09304">
        <ele>1154</ele>
        <time>2019-04-19T20:19:13Z</time>
      </trkpt>
      <trkpt lat="44.65908" lon="3.0927">
        <ele>1153</ele>
        <time>2019-04-19T20:20:13Z</time>
      </trkpt>
      <trkpt lat="44.65864" lon="3.0924">
        <ele>1153</ele>
        <time>2019-04-19T20:21:13Z</time>
      </trkpt>
      <trkpt lat="44.65818" lon="3.09208">
        <ele>1153</ele>
        <time>2019-04-19T20:22:13Z</time>
      </trkpt>
      <trkpt lat="44.65773" lon="3.0918">
        <ele>1154</ele>
        <time>2019-04-19T20:23:13Z</time>
      </trkpt>
      <trkpt lat="44.65733" lon="3.09159">
        <ele>1154</ele>
        <time>2019-04-19T20:24:13Z</time>
      </trkpt>
      <trkpt lat="44.65691" lon="3.09133">
        <ele>1154</ele>
        <time>2019-04-19T20:25:13Z</time>
      </trkpt>
      <trkpt lat="44.65661" lon="3.09108">
        <ele>1154</ele>
        <time>2019-04-19T20:26:13Z</time>
      </trkpt>
      <trkpt lat="44.65622" lon="3.0908">
        <ele>1153</ele>
        <time>2019-04-19T20:27:13Z</time>
      </trkpt>
      <trkpt lat="44.65572" lon="3.09071">
        <ele>1154</ele>
        <time>2019-04-19T20:28:13Z</time>
      </trkpt>
      <trkpt lat="44.65531" lon="3.09057">
        <ele>1154</ele>
        <time>2019-04-19T20:29:13Z</time>
      </trkpt>
      <trkpt lat="44.65502" lon="3.09034">
        <ele>1154</ele>
        <time>2019-04-19T20:30:13Z</time>
      </trkpt>
      <trkpt lat="44.65512" lon="3.08965">
        <ele>1151</ele>
        <time>2019-04-19T20:31:13Z</time>
      </trkpt>
      <trkpt lat="44.65511" lon="3.08925">
        <ele>1151</ele>
        <time>2019-04-19T20:32:13Z</time>
      </trkpt>
      <trkpt lat="44.65486" lon="3.0886">
        <ele>1154</ele>
        <time>2019-04-19T20:33:13Z</time>
      </trkpt>
      <trkpt lat="44.65453" lon="3.08789">
        <ele>1156</ele>
        <time>2019-04-19T20:34:13Z</time>
      </trkpt>
      <trkpt lat="44.65432" lon="3.0872">
        <ele>1158</ele>
        <time>2019-04-19T20:35:13Z</time>
      </trkpt>
      <trkpt lat="44.6541" lon="3.08606">
        <ele>1164</ele>
        <time>2019-04-19T20:36:13Z</time>
      </trkpt>
      <trkpt lat="44.65407" lon="3.08573">
        <ele>1165</ele>
        <time>2019-04-19T20:37:13Z</time>
      </trkpt>
      <trkpt lat="44.65417" lon="3.08519">
        <ele>1166</ele>
        <time>2019-04-19T20:38:13Z</time>
      </trkpt>
      <trkpt lat="44.65445" lon="3.08434">
        <ele>1167</ele>
        <time>2019-04-19T20:39:13Z</time>
      </trkpt>
      <trkpt lat="44.65466" lon="3.08377">
        <ele>1169</ele>
        <time>2019-04-19T20:40:13Z</time>
      </trkpt>
      <trkpt lat="44.65484" lon="3.08299">
        <ele>1171</ele>
        <time>2019-04-19T20:41:13Z</time>
      </trkpt>
      <trkpt lat="44.65504" lon="3.08211">
        <ele>1173</ele>
        <time>2019-04-19T20:42:13Z</time>
      </trkpt>
      <trkpt lat="44.65521" lon="3.08132">
        <ele>1174</ele>
        <time>2019-04-19T20:43:13Z</time>
      </trkpt>
      <trkpt lat="44.65539" lon="3.0804">
        <ele>1176</ele>
        <time>2019-04-19T20:44:13Z</time>
      </trkpt>
      <trkpt lat="44.65594" lon="3.07988">
        <ele>1179</ele>
        <time>2019-04-19T20:45:13Z</time>
      </trkpt>
      <trkpt lat="44.65643" lon="3.07932">
        <ele>1179</ele>
        <time>2019-04-19T20:46:13Z</time>
      </trkpt>
      <trkpt lat="44.65651" lon="3.0785">
        <ele>1182</ele>
        <time>2019-04-19T20:47:13Z</time>
      </trkpt>
      <trkpt lat="44.65653" lon="3.07754">
        <ele>1184</ele>
        <time>2019-04-19T20:48:13Z</time>
      </trkpt>
      <trkpt lat="44.65653" lon="3.07729">
        <ele>1185</ele>
        <time>2019-04-19T20:49:13Z</time>
      </trkpt>
      <trkpt lat="44.65676" lon="3.0764">
        <ele>1188</ele>
        <time>2019-04-19T20:50:13Z</time>
      </trkpt>
      <trkpt lat="44.65707" lon="3.0756">
        <ele>1194</ele>
        <time>2019-04-19T20:51:13Z</time>
      </trkpt>
      <trkpt lat="44.65725" lon="3.07532">
        <ele>1197</ele>
        <time>2019-04-19T20:52:13Z</time>
      </trkpt>
      <trkpt lat="44.65749" lon="3.07466">
        <ele>1201</ele>
        <time>2019-04-19T20:53:13Z</time>
      </trkpt>
      <trkpt lat="44.65757" lon="3.07427">
        <ele>1204</ele>
        <time>2019-04-19T20:54:13Z</time>
      </trkpt>
      <trkpt lat="44.65764" lon="3.07372">
        <ele>1208</ele>
        <time>2019-04-19T20:55:13Z</time>
      </trkpt>
      <trkpt lat="44.65773" lon="3.07332">
        <ele>1212</ele>
        <time>2019-04-19T20:56:13Z</time>
      </trkpt>
      <trkpt lat="44.65785" lon="3.07319">
        <ele>1213</ele>
        <time>2019-04-19T20:57:13Z</time>
      </trkpt>
      <trkpt lat="44.65788" lon="3.07264">
        <ele>1213</ele>
        <time>2019-04-19T20:58:13Z</time>
      </trkpt>
      <trkpt lat="44.65772" lon="3.07212">
        <ele>1213</ele>
        <time>2019-04-19T20:59:13Z</time>
      </trkpt>
      <trkpt lat="44.65758" lon="3.07171">
        <ele>1214</ele>
        <time>2019-04-19T21:00:13Z</time>
      </trkpt>
      <trkpt lat="44.65744" lon="3.07132">
        <ele>1215</ele>
        <time>2019-04-19T21:01:13Z</time>
      </trkpt>
      <trkpt lat="44.65734" lon="3.07098">
        <ele>1216</ele>
        <time>2019-04-19T21:02:13Z</time>
      </trkpt>
      <trkpt lat="44.6573" lon="3.07064">
        <ele>1216</ele>
        <time>2019-04-19T21:03:13Z</time>
      </trkpt>
      <trkpt lat="44.65733" lon="3.07029">
        <ele>1214</ele>
        <time>2019-04-19T21:04:13Z</time>
      </trkpt>
      <trkpt lat="44.6571" lon="3.06992">
        <ele>1213</ele>
        <time>2019-04-19T21:05:13Z</time>
      </trkpt>
      <trkpt lat="44.65683" lon="3.06957">
        <ele>1213</ele>
        <time>2019-04-19T21:06:13Z</time>
      </trkpt>
      <trkpt lat="44.65657" lon="3.06938">
        <ele>1215</ele>
        <time>2019-04-19T21:07:13Z</time>
      </trkpt>
      <trkpt lat="44.65646" lon="3.06921">
        <ele>1215</ele>
        <time>2019-04-19T21:08:13Z</time>
      </trkpt>
      <trkpt lat="44.65618" lon="3.06882">
        <ele>1216</ele>
        <time>2019-04-19T21:09:13Z</time>
      </trkpt>
      <trkpt lat="44.65582" lon="3.06847">
        <ele>1214</ele>
        <time>2019-04-19T21:10:13Z</time>
      </trkpt>
      <trkpt lat="44.6554" lon="3.06813">
        <ele>1216</ele>
        <time>2019-04-19T21:11:13Z</time>
      </trkpt>
      <trkpt lat="44.65502" lon="3.06784">
        <ele>1217</ele>
        <time>2019-04-19T21:12:13Z</time>
      </trkpt>
      <trkpt lat="44.65474" lon="3.06767">
        <ele>1216</ele>
        <time>2019-04-19T21:13:13Z</time>
      </trkpt>
      <trkpt lat="44.65454" lon="3.06778">
        <ele>1218</ele>
        <time>2019-04-19T21:14:13Z</time>
      </trkpt>
      <trkpt lat="44.65421" lon="3.06816">
        <ele>1221</ele>
        <time>2019-04-19T21:15:13Z</time>
      </trkpt>
      <trkpt lat="44.65395" lon="3.06848">
        <ele>1222</ele>
        <time>2019-04-19T21:16:13Z</time>
      </trkpt>
      <trkpt lat="44.65378" lon="3.06858">
        <ele>1221</ele>
        <time>2019-04-19T21:17:13Z</time>
      </trkpt>
      <trkpt lat="44.65332" lon="3.06855">
        <ele>1218</ele>
        <time>2019-04-19T21:18:13Z</time>
      </trkpt>
      <trkpt lat="44.65302" lon="3.068">
        <ele>1215</ele>
        <time>2019-04-19T21:19:13Z</time>
      </trkpt>
      <trkpt lat="44.6529" lon="3.06748">
        <ele>1215</ele>
        <time>2019-04-19T21:20:13Z</time>
      </trkpt>
      <trkpt lat="44.65291" lon="3.06716">
        <ele>1216</ele>
        <time>2019-04-19T21:21:13Z</time>
      </trkpt>
      <trkpt lat="44.6531" lon="3.06685">
        <ele>1216</ele>
        <time>2019-04-19T21:22:13Z</time>
      </trkpt>
      <trkpt lat="44.65333" lon="3.06637">
        <ele>1215</ele>
        <time>2019-04-19T21:23:13Z</time>
      </trkpt>
      <trkpt lat="44.65347" lon="3.06577">
        <ele>1215</ele>
        <time>2019-04-19T21:24:13Z</time>
      </trkpt>
      <trkpt lat="44.65358" lon="3.06551">
        <ele>1217</ele>
        <time>2019-04-19T21:25:13Z</time>
      </trkpt>
      <trkpt lat="44.65406" lon="3.06511">
        <ele>1215</ele>
        <time>2019-04-19T21:26:13Z</time>
      </trkpt>
      <trkpt lat="44.65456" lon="3.06447">
        <ele>1215</ele>
        <time>2019-04-19T21:27:13Z</time>
      </trkpt>
      <trkpt lat="44.65505" lon="3.06389">
        <ele>1211</ele>
        <time>2019-04-19T21:28:13Z</time>
      </trkpt>
      <trkpt lat="44.65529" lon="3.06354">
        <ele>1210</ele>
        <time>2019-04-19T21:29:13Z</time>
      </trkpt>
      <trkpt lat="44.65533" lon="3.06324">
        <ele>1209</ele>
        <time>2019-04-19T21:30:13Z</time>
      </trkpt>
      <trkpt lat="44.65529" lon="3.0629">
        <ele>1209</ele>
        <time>2019-04-19T21:31:13Z</time>
      </trkpt>
      <trkpt lat="44.65521" lon="3.06267">
        <ele>1209</ele>
        <time>2019-04-19T21:32:13Z</time>
      </trkpt>
      <trkpt lat="44.6551" lon="3.06229">
        <ele>1208</ele>
        <time>2019-04-19T21:33:13Z</time>
      </trkpt>
      <trkpt lat="44.6551" lon="3.06198">
        <ele>1206</ele>
        <time>2019-04-19T21:34:13Z</time>
      </trkpt>
      <trkpt lat="44.65537" lon="3.0612">
        <ele>1205</ele>
        <time>2019-04-19T21:35:13Z</time>
      </trkpt>
      <trkpt lat="44.65565" lon="3.06057">
        <ele>1206</ele>
        <time>2019-04-19T21:36:13Z</time>
      </trkpt>
      <trkpt lat="44.65609" lon="3.06003">
        <ele>1208</ele>
        <time>2019-04-19T21:37:13Z</time>
      </trkpt>
      <trkpt lat="44.65647" lon="3.05956">
        <ele>1209</ele>
        <time>2019-04-19T21:38:13Z</time>
      </trkpt>
      <trkpt lat="44.65675" lon="3.05902">
        <ele>1211</ele>
        <time>2019-04-19T21:39:13Z</time>
      </trkpt>
      <trkpt lat="44.65681" lon="3.05873">
        <ele>1212</ele>
        <time>2019-04-19T21:40:13Z</time>
      </trkpt>
      <trkpt lat="44.65678" lon="3.05827">
        <ele>1212</ele>
        <time>2019-04-19T21:41:13Z</time>
      </trkpt>
      <trkpt lat="44.65669" lon="3.05801">
        <ele>1212</ele>
        <time>2019-04-19T21:42:13Z</time>
      </trkpt>
      <trkpt lat="44.65654" lon="3.05783">
        <ele>1212</ele>
        <time>2019-04-19T21:43:13Z</time>
      </trkpt>
      <trkpt lat="44.65618" lon="3.05758">
        <ele>1211</ele>
        <time>2019-04-19T21:44:13Z</time>
      </trkpt>
      <trkpt lat="44.65602" lon="3.05739">
        <ele>1210</ele>
        <time>2019-04-19T21:45:13Z</time>
      </trkpt>
      <trkpt lat="44.65601" lon="3.05719">
        <ele>1209</ele>
        <time>2019-04-19T21:46:13Z</time>
      </trkpt>
      <trkpt lat="44.65608" lon="3.05701">
        <ele>1208</ele>
        <time>2019-04-19T21:47:13Z</time>
      </trkpt>
      <trkpt lat="44.65638" lon="3.05681">
        <ele>1208</ele>
        <time>2019-04-19T21:48:13Z</time>
      </trkpt>
      <trkpt lat="44.65711" lon="3.05653">
        <ele>1206</ele>
        <time>2019-04-19T21:49:13Z</time>
      </trkpt>
      <trkpt lat="44.65756" lon="3.05627">
        <ele>1205</ele>
        <time>2019-04-19T21:50:13Z</time>
      </trkpt>
      <trkpt lat="44.65765" lon="3.05603">
        <ele>1204</ele>
        <time>2019-04-19T21:51:13Z</time>
      </trkpt>
      <trkpt lat="44.6577" lon="3.05569">
        <ele>1202</ele>
        <time>2019-04-19T21:52:13Z</time>
      </trkpt>
      <trkpt lat="44.65762" lon="3.05506">
        <ele>1200</ele>
        <time>2019-04-19T21:53:13Z</time>
      </trkpt>
      <trkpt lat="44.65759" lon="3.05474">
        <ele>1198</ele>
        <time>2019-04-19T21:54:13Z</time>
      </trkpt>
      <trkpt lat="44.65766" lon="3.05437">
        <ele>1198</ele>
        <time>2019-04-19T21:55:13Z</time>
      </trkpt>
      <trkpt lat="44.65789" lon="3.05391">
        <ele>1197</ele>
        <time>2019-04-19T21:56:13Z</time>
      </trkpt>
      <trkpt lat="44.65818" lon="3.0534">
        <ele>1194</ele>
        <time>2019-04-19T21:57:13Z</time>
      </trkpt>
      <trkpt lat="44.65854" lon="3.05275">
        <ele>1192</ele>
        <time>2019-04-19T21:58:13Z</time>
      </trkpt>
      <trkpt lat="44.659" lon="3.05227">
        <ele>1189</ele>
        <time>2019-04-19T21:59:13Z</time>
      </trkpt>
      <trkpt lat="44.65944" lon="3.05179">
        <ele>1187</ele>
        <time>2019-04-19T22:00:13Z</time>
      </trkpt>
      <trkpt lat="44.65986" lon="3.05139">
        <ele>1186</ele>
        <time>2019-04-19T22:01:13Z</time>
      </trkpt>
      <trkpt lat="44.6603" lon="3.05088">
        <ele>1184</ele>
        <time>2019-04-19T22:02:13Z</time>
      </trkpt>
      <trkpt lat="44.66062" lon="3.05046">
        <ele>1183</ele>
        <time>2019-04-19T22:03:13Z</time>
      </trkpt>
      <trkpt lat="44.66079" lon="3.05028">
        <ele>1183</ele>
        <time>2019-04-19T22:04:13Z</time>
      </trkpt>
      <trkpt lat="44.66107" lon="3.05005">
        <ele>1181</ele>
        <time>2019-04-19T22:05:13Z</time>
      </trkpt>
      <trkpt lat="44.66138" lon="3.04967">
        <ele>1179</ele>
        <time>2019-04-19T22:06:13Z</time>
      </trkpt>
      <trkpt lat="44.66159" lon="3.04934">
        <ele>1178</ele>
        <time>2019-04-19T22:07:13Z</time>
      </trkpt>
      <trkpt lat="44.66163" lon="3.04912">
        <ele>1178</ele>
        <time>2019-04-19T22:08:13Z</time>
      </trkpt>
      <trkpt lat="44.66163" lon="3.0488">
        <ele>1178</ele>
        <time>2019-04-19T22:09:13Z</time>
      </trkpt>
      <trkpt lat="44.66163" lon="3.04867">
        <ele>1178</ele>
        <time>2019-04-19T22:10:13Z</time>
      </trkpt>
      <trkpt lat="44.66167" lon="3.04856">
        <ele>1177</ele>
        <time>2019-04-19T22:11:13Z</time>
      </trkpt>
      <trkpt lat="44.66181" lon="3.04813">
        <ele>1176</ele>
        <time>2019-04-19T22:12:13Z</time>
      </trkpt>
      <trkpt lat="44.66185" lon="3.04791">
        <ele>1175</ele>
        <time>2019-04-19T22:13:13Z</time>
      </trkpt>
    </trkseg>
  </trk>
</gpx>